Time;durP1;ratioP1;P1;durP2;ratioP2;P2;SDS_P1;SDS_P2;PMS_P1;PMS_P2;Temp;Humidity;BMP_temperature;BMP_pressure;BME280_temperature;BME280_humidity;BME280_pressure;Samples;Min_cycle;Max_cycle;Signal;HPM_P1;HPM_P2
2021/04/19 00:02:15;;;;;;;28.13;14.50;;;9.10;82.80;;;;;;5114218;28;20267;-73
2021/04/19 00:04:41;;;;;;;31.97;16.93;;;9.10;82.80;;;;;;5109955;28;20511;-71
2021/04/19 00:07:08;;;;;;;28.73;14.93;;;9.10;82.80;;;;;;5103631;28;20926;-70
2021/04/19 00:09:35;;;;;;;30.80;15.60;;;9.10;82.70;;;;;;5114273;28;20432;-71
2021/04/19 00:12:01;;;;;;;27.37;14.60;;;9.10;82.80;;;;;;5114883;28;20569;-74
2021/04/19 00:14:27;;;;;;;31.00;16.00;;;9.00;83.00;;;;;;5114519;28;20812;-69
2021/04/19 00:16:53;;;;;;;27.50;15.17;;;9.00;83.30;;;;;;5115047;28;20400;-73
2021/04/19 00:19:18;;;;;;;26.77;15.43;;;8.90;83.60;;;;;;5129504;27;20199;-72
2021/04/19 00:21:44;;;;;;;31.17;15.20;;;8.80;83.60;;;;;;5119960;28;20199;-72
2021/04/19 00:24:10;;;;;;;31.03;16.50;;;8.80;84.00;;;;;;5118410;28;20178;-73
2021/04/19 00:26:36;;;;;;;28.30;15.40;;;8.80;84.10;;;;;;5118170;28;20183;-72
2021/04/19 00:29:02;;;;;;;26.33;15.37;;;8.70;84.40;;;;;;5116093;28;20567;-70
2021/04/19 00:31:28;;;;;;;28.33;16.30;;;8.70;84.40;;;;;;5116975;28;20186;-75
2021/04/19 00:33:54;;;;;;;28.63;15.87;;;8.70;84.70;;;;;;5113709;28;20424;-70
2021/04/19 00:36:19;;;;;;;27.07;14.60;;;8.70;84.70;;;;;;5111150;28;20277;-72
2021/04/19 00:38:45;;;;;;;31.80;14.67;;;8.70;84.90;;;;;;5110074;28;20265;-69
2021/04/19 00:41:12;;;;;;;23.60;13.90;;;8.70;84.70;;;;;;5111643;28;20362;-68
2021/04/19 00:43:39;;;;;;;30.37;15.70;;;8.60;84.70;;;;;;5113164;28;20194;-71
2021/04/19 00:46:05;;;;;;;28.33;15.93;;;8.60;84.70;;;;;;5111093;28;20420;-72
2021/04/19 00:48:35;;;;;;;27.10;15.30;;;8.60;84.90;;;;;;5113114;28;20446;-73
2021/04/19 00:51:03;;;;;;;24.97;14.07;;;8.50;85.00;;;;;;5100010;28;20444;-72
2021/04/19 00:53:29;;;;;;;26.90;15.20;;;8.50;85.20;;;;;;5114326;28;20436;-74
2021/04/19 00:55:56;;;;;;;26.13;15.00;;;8.50;85.50;;;;;;5115337;28;20473;-71
2021/04/19 00:58:26;;;;;;;24.60;14.47;;;8.50;85.50;;;;;;5106092;28;20866;-74
2021/04/19 01:00:52;;;;;;;26.03;14.27;;;8.40;85.60;;;;;;5108221;28;21023;-71
2021/04/19 01:03:19;;;;;;;29.03;16.27;;;8.40;85.60;;;;;;5114821;28;21255;-72
2021/04/19 01:05:46;;;;;;;24.00;13.90;;;8.30;85.50;;;;;;5116928;28;20412;-71
2021/04/19 01:08:11;;;;;;;25.40;14.70;;;8.20;86.20;;;;;;5118864;28;20453;-70
2021/04/19 01:10:38;;;;;;;33.47;16.87;;;8.20;86.50;;;;;;5119053;28;20527;-71
2021/04/19 01:13:05;;;;;;;31.87;15.13;;;8.30;86.50;;;;;;5118501;28;20202;-71
2021/04/19 01:15:32;;;;;;;24.57;14.70;;;8.40;86.20;;;;;;5116144;28;20428;-70
2021/04/19 01:17:58;;;;;;;26.63;15.37;;;8.40;86.00;;;;;;5110096;28;20422;-72
2021/04/19 01:20:28;;;;;;;31.33;16.47;;;8.40;85.90;;;;;;5109403;28;20460;-72
2021/04/19 01:22:54;;;;;;;27.50;14.60;;;8.30;86.00;;;;;;5116990;28;20163;-70
2021/04/19 01:25:32;;;;;;;34.30;16.57;;;8.30;86.20;;;;;;5115968;27;20401;-73
2021/04/19 01:27:58;;;;;;;27.97;16.30;;;8.30;86.20;;;;;;5107047;28;20190;-72
2021/04/19 01:30:30;;;;;;;35.20;19.37;;;8.30;86.00;;;;;;5095046;28;20428;-71
2021/04/19 01:32:56;;;;;;;32.20;17.20;;;8.20;86.20;;;;;;5104090;28;20511;-71
2021/04/19 01:35:22;;;;;;;30.17;17.50;;;8.20;86.60;;;;;;5108310;28;20970;-71
2021/04/19 01:37:47;;;;;;;32.90;17.20;;;8.20;86.90;;;;;;5103920;28;20225;-71
2021/04/19 01:40:15;;;;;;;32.77;16.83;;;8.20;87.00;;;;;;5108329;28;20480;-73
2021/04/19 01:42:41;;;;;;;35.10;18.43;;;8.20;87.10;;;;;;5093845;28;20221;-69
2021/04/19 01:45:08;;;;;;;27.20;16.70;;;8.20;86.90;;;;;;5110036;28;21085;-71
2021/04/19 01:47:34;;;;;;;34.37;19.40;;;8.30;86.90;;;;;;5108876;28;20179;-72
2021/04/19 01:50:10;;;;;;;32.50;17.80;;;8.30;86.80;;;;;;5103389;28;20467;-72
2021/04/19 01:52:36;;;;;;;34.10;17.47;;;8.30;86.60;;;;;;5118620;28;20412;-73
2021/04/19 01:55:04;;;;;;;29.53;15.37;;;8.40;86.60;;;;;;5116804;28;20511;-70
2021/04/19 01:57:30;;;;;;;34.03;15.43;;;8.40;86.20;;;;;;5100177;28;20420;-74
2021/04/19 01:59:56;;;;;;;28.33;16.60;;;8.30;86.00;;;;;;5112585;28;20462;-74
2021/04/19 02:02:43;;;;;;;30.50;16.17;;;8.30;86.30;;;;;;5102406;28;20731;-73
2021/04/19 02:05:12;;;;;;;33.87;17.67;;;8.30;86.20;;;;;;5094911;28;20393;-70
2021/04/19 02:07:54;;;;;;;33.10;18.17;;;8.30;86.80;;;;;;5106745;28;20802;-70
2021/04/19 02:10:45;;;;;;;36.53;18.90;;;8.30;86.80;;;;;;5102846;28;20437;-70
2021/04/19 02:13:50;;;;;;;30.90;16.30;;;8.40;86.60;;;;;;5112775;28;20500;-72
2021/04/19 02:16:21;;;;;;;31.00;15.93;;;8.40;86.50;;;;;;5115005;28;21059;-76
2021/04/19 02:19:02;;;;;;;31.63;15.73;;;8.40;86.30;;;;;;5116898;28;20428;-75
2021/04/19 02:21:39;;;;;;;31.23;17.00;;;8.40;86.20;;;;;;5107391;28;20464;-72
2021/04/19 02:24:12;;;;;;;27.30;16.90;;;8.30;86.30;;;;;;5114771;28;20461;-72
2021/04/19 02:26:45;;;;;;;35.47;16.30;;;8.30;86.60;;;;;;5111077;28;20404;-70
2021/04/19 02:29:15;;;;;;;30.40;16.43;;;8.30;86.80;;;;;;5094702;28;20609;-71
2021/04/19 02:31:49;;;;;;;27.43;15.07;;;8.30;86.80;;;;;;5097191;28;20424;-69
2021/04/19 02:34:17;;;;;;;29.53;14.57;;;8.40;86.60;;;;;;5097405;28;20814;-69
2021/04/19 02:36:45;;;;;;;35.73;16.37;;;8.40;86.80;;;;;;5110087;28;20416;-72
2021/04/19 02:39:12;;;;;;;29.43;15.10;;;8.40;86.50;;;;;;5109311;28;20469;-69
2021/04/19 02:41:41;;;;;;;26.07;15.50;;;8.50;86.20;;;;;;5110557;28;20452;-71
2021/04/19 02:44:09;;;;;;;24.23;14.50;;;8.50;85.90;;;;;;5102187;28;20413;-69
2021/04/19 02:46:36;;;;;;;29.37;16.37;;;8.50;85.50;;;;;;5108423;28;20761;-69
2021/04/19 02:49:03;;;;;;;27.43;15.10;;;8.50;85.50;;;;;;5114078;28;20443;-76
2021/04/19 02:51:30;;;;;;;24.20;14.00;;;8.40;85.30;;;;;;5111020;28;20444;-71
2021/04/19 02:53:56;;;;;;;30.33;15.80;;;8.30;85.70;;;;;;5109371;28;20435;-75
2021/04/19 02:56:22;;;;;;;26.80;14.33;;;8.30;85.90;;;;;;5110798;28;20503;-72
2021/04/19 02:58:58;;;;;;;24.57;13.50;;;8.30;85.90;;;;;;5108954;28;20570;-76
2021/04/19 03:01:30;;;;;;;22.67;14.37;;;8.30;86.00;;;;;;5110966;28;20224;-76
2021/04/19 03:04:02;;;;;;;27.53;15.70;;;8.40;85.90;;;;;;5111694;28;20412;-73
2021/04/19 03:06:30;;;;;;;30.10;16.27;;;8.40;85.30;;;;;;5110645;28;20421;-74
2021/04/19 03:09:02;;;;;;;33.17;15.80;;;8.40;85.20;;;;;;5108468;28;20424;-73
2021/04/19 03:11:35;;;;;;;26.97;15.13;;;8.40;85.50;;;;;;5099841;28;20412;-77
2021/04/19 03:14:05;;;;;;;28.70;15.90;;;8.30;85.50;;;;;;5114005;28;20408;-73
2021/04/19 03:16:32;;;;;;;28.20;15.93;;;8.20;85.90;;;;;;5113903;28;20415;-71
2021/04/19 03:19:01;;;;;;;37.83;16.20;;;8.20;86.20;;;;;;5114777;28;20431;-75
2021/04/19 03:21:29;;;;;;;30.40;15.63;;;8.20;86.20;;;;;;5119552;28;20487;-73
2021/04/19 03:23:59;;;;;;;28.37;16.47;;;8.20;86.30;;;;;;5119901;28;20412;-69
2021/04/19 03:26:28;;;;;;;28.37;16.10;;;8.10;86.50;;;;;;5117527;28;20424;-71
2021/04/19 03:28:54;;;;;;;25.43;14.73;;;8.20;86.60;;;;;;5117792;28;20947;-71
2021/04/19 03:31:46;;;;;;;28.67;15.40;;;8.20;86.60;;;;;;5118811;28;20416;-71
2021/04/19 03:34:18;;;;;;;24.70;15.33;;;8.30;86.50;;;;;;5103212;28;20939;-70
2021/04/19 03:36:48;;;;;;;29.63;15.70;;;8.30;86.30;;;;;;5115133;28;20412;-69
2021/04/19 03:39:14;;;;;;;29.83;15.83;;;8.30;86.60;;;;;;5114172;28;20519;-71
2021/04/19 03:41:45;;;;;;;25.23;14.43;;;8.30;86.50;;;;;;5114541;28;20975;-70
2021/04/19 03:44:13;;;;;;;26.60;15.70;;;8.30;86.60;;;;;;5114136;28;20457;-69
2021/04/19 03:46:41;;;;;;;27.70;14.77;;;8.40;86.80;;;;;;5116242;27;20416;-71
2021/04/19 03:49:13;;;;;;;33.90;16.37;;;8.40;86.20;;;;;;5103192;28;20494;-73
2021/04/19 03:51:43;;;;;;;28.53;17.37;;;8.20;86.20;;;;;;5097178;28;21087;-70
2021/04/19 03:54:10;;;;;;;30.97;15.80;;;8.00;87.10;;;;;;5113287;28;20505;-70
2021/04/19 03:56:39;;;;;;;32.50;16.63;;;8.00;87.80;;;;;;5113526;28;20477;-72
2021/04/19 03:59:09;;;;;;;32.80;17.00;;;8.00;87.80;;;;;;5112948;28;20500;-70
2021/04/19 04:01:38;;;;;;;35.17;16.77;;;8.00;87.80;;;;;;5111520;28;20517;-71
2021/04/19 04:04:05;;;;;;;32.97;16.60;;;8.10;87.80;;;;;;5112461;28;20470;-71
2021/04/19 04:06:31;;;;;;;34.83;16.90;;;8.10;87.70;;;;;;5113907;28;20415;-69
2021/04/19 04:08:58;;;;;;;36.63;18.40;;;8.10;87.70;;;;;;5112461;28;20484;-72
2021/04/19 04:11:26;;;;;;;32.20;19.00;;;8.20;87.80;;;;;;5109570;28;20492;-71
2021/04/19 04:13:52;;;;;;;31.23;17.57;;;8.20;87.70;;;;;;5106775;28;20420;-71
2021/04/19 04:16:17;;;;;;;41.90;20.73;;;8.20;87.60;;;;;;5113942;28;20427;-73
2021/04/19 04:18:43;;;;;;;29.73;18.20;;;8.20;87.40;;;;;;5101335;28;20417;-70
2021/04/19 04:21:10;;;;;;;34.70;18.70;;;8.30;87.40;;;;;;5091800;28;20211;-70
2021/04/19 04:23:36;;;;;;;31.97;17.90;;;8.30;87.40;;;;;;5104476;28;20182;-73
2021/04/19 04:26:03;;;;;;;36.10;18.53;;;8.40;87.60;;;;;;5094558;28;20413;-74
2021/04/19 04:28:30;;;;;;;33.30;17.03;;;8.50;87.30;;;;;;5095132;28;20429;-71
2021/04/19 04:30:56;;;;;;;36.90;16.77;;;8.50;87.10;;;;;;5113069;28;20440;-71
2021/04/19 04:33:21;;;;;;;30.60;17.40;;;8.60;87.00;;;;;;5114042;28;20413;-73
2021/04/19 04:35:47;;;;;;;34.70;17.70;;;8.60;86.90;;;;;;5095866;28;20195;-70
2021/04/19 04:38:13;;;;;;;37.40;18.27;;;8.70;86.60;;;;;;5107186;28;20265;-70
2021/04/19 04:40:39;;;;;;;39.07;18.70;;;8.70;86.60;;;;;;5112108;28;20210;-71
2021/04/19 04:43:14;;;;;;;32.83;19.10;;;8.60;86.60;;;;;;5100075;28;20203;-71
2021/04/19 04:45:41;;;;;;;35.93;19.13;;;8.60;86.50;;;;;;5097177;28;20185;-71
2021/04/19 04:48:14;;;;;;;41.90;19.57;;;8.70;86.30;;;;;;5113409;28;20404;-72
2021/04/19 04:50:48;;;;;;;35.27;18.07;;;8.70;86.00;;;;;;5093544;28;20437;-70
2021/04/19 04:53:24;;;;;;;36.00;17.47;;;8.60;86.20;;;;;;5091496;28;20433;-70
2021/04/19 04:55:52;;;;;;;32.93;17.70;;;8.70;86.60;;;;;;5091800;28;20424;-70
2021/04/19 04:58:18;;;;;;;41.00;19.47;;;8.70;86.20;;;;;;5104265;28;20424;-69
2021/04/19 05:00:45;;;;;;;40.53;19.13;;;8.70;86.30;;;;;;5102730;28;20593;-70
2021/04/19 05:03:16;;;;;;;40.13;19.50;;;8.80;85.70;;;;;;5115234;27;21005;-74
2021/04/19 05:05:45;;;;;;;35.00;18.40;;;8.80;85.60;;;;;;5099851;28;20453;-70
2021/04/19 05:08:12;;;;;;;32.23;17.13;;;8.90;85.50;;;;;;5090496;28;20418;-72
2021/04/19 05:10:42;;;;;;;32.30;16.10;;;8.80;84.40;;;;;;5104514;28;20444;-68
2021/04/19 05:13:15;;;;;;;35.50;17.63;;;8.60;84.30;;;;;;5111380;28;20417;-69
2021/04/19 05:15:42;;;;;;;35.93;18.27;;;8.60;85.50;;;;;;5113617;28;20420;-72
2021/04/19 05:18:17;;;;;;;32.27;18.73;;;8.60;86.20;;;;;;5113514;28;20427;-71
2021/04/19 05:20:44;;;;;;;31.77;18.63;;;8.60;87.00;;;;;;5111178;28;20487;-75
2021/04/19 05:23:11;;;;;;;35.77;16.97;;;8.60;87.60;;;;;;5114206;28;20430;-72
2021/04/19 05:25:37;;;;;;;35.50;18.57;;;8.60;88.00;;;;;;5117268;28;20507;-71
2021/04/19 05:28:03;;;;;;;32.20;18.33;;;8.60;88.30;;;;;;5111759;28;20436;-69
2021/04/19 05:30:31;;;;;;;31.97;19.33;;;8.60;88.70;;;;;;5110311;27;20449;-71
2021/04/19 05:33:01;;;;;;;33.87;18.70;;;8.60;88.60;;;;;;5091207;28;20425;-71
2021/04/19 05:35:28;;;;;;;31.33;16.47;;;8.60;89.30;;;;;;5089545;28;20428;-70
2021/04/19 05:37:54;;;;;;;31.40;18.13;;;8.60;89.90;;;;;;5088974;28;20436;-76
2021/04/19 05:40:21;;;;;;;37.70;18.70;;;8.60;90.30;;;;;;5108142;28;20464;-70
2021/04/19 05:42:48;;;;;;;37.83;18.53;;;8.60;90.30;;;;;;5111218;28;20420;-72
2021/04/19 05:45:18;;;;;;;36.60;17.83;;;8.40;90.10;;;;;;5109179;28;20452;-75
2021/04/19 05:47:45;;;;;;;35.67;18.83;;;8.40;90.40;;;;;;5097975;28;20474;-70
2021/04/19 05:50:12;;;;;;;39.70;19.50;;;8.40;90.00;;;;;;5096422;28;20444;-69
2021/04/19 05:52:38;;;;;;;34.70;17.27;;;8.40;90.60;;;;;;5096704;28;20490;-71
2021/04/19 05:55:05;;;;;;;34.63;17.63;;;8.40;91.40;;;;;;5109513;28;20447;-72
2021/04/19 05:58:06;;;;;;;33.20;17.77;;;8.40;92.10;;;;;;5111131;28;20428;-73
2021/04/19 06:00:44;;;;;;;35.50;18.77;;;8.50;92.60;;;;;;5097838;28;20456;-71
2021/04/19 06:03:39;;;;;;;39.27;20.10;;;8.50;92.70;;;;;;5110538;28;20927;-69
2021/04/19 06:06:17;;;;;;;36.70;19.17;;;8.30;92.20;;;;;;5110178;28;20920;-71
2021/04/19 06:08:59;;;;;;;38.93;19.27;;;8.30;92.30;;;;;;5109584;28;20416;-70
2021/04/19 06:11:35;;;;;;;41.07;20.60;;;8.10;92.00;;;;;;5109141;28;20524;-73
2021/04/19 06:14:03;;;;;;;37.37;20.30;;;7.90;92.40;;;;;;5110292;28;20501;-70
2021/04/19 06:16:36;;;;;;;33.90;20.17;;;7.70;93.10;;;;;;5110306;28;20496;-75
2021/04/19 06:19:03;;;;;;;39.60;21.87;;;7.60;93.70;;;;;;5109660;28;21117;-69
2021/04/19 06:21:31;;;;;;;38.03;22.20;;;7.50;94.00;;;;;;5110265;28;20869;-74
2021/04/19 06:23:58;;;;;;;43.40;22.13;;;7.50;94.20;;;;;;5110550;28;20424;-74
2021/04/19 06:26:23;;;;;;;40.90;20.17;;;7.50;94.60;;;;;;5110046;28;20448;-73
2021/04/19 06:28:49;;;;;;;39.67;19.97;;;7.50;94.50;;;;;;5093090;28;20472;-70
2021/04/19 06:31:18;;;;;;;44.37;22.30;;;7.50;94.50;;;;;;5097705;28;20200;-69
2021/04/19 06:34:02;;;;;;;36.40;20.67;;;7.60;94.60;;;;;;5109675;28;20424;-69
2021/04/19 06:36:31;;;;;;;40.70;21.40;;;7.60;94.70;;;;;;5109531;28;20487;-70
2021/04/19 06:38:56;;;;;;;37.47;19.50;;;7.70;95.10;;;;;;5103109;28;20939;-70
2021/04/19 06:41:22;;;;;;;39.70;21.03;;;7.80;95.20;;;;;;5089392;28;20472;-68
2021/04/19 06:43:48;;;;;;;37.70;20.77;;;7.70;95.10;;;;;;5088770;28;20187;-68
2021/04/19 06:46:15;;;;;;;39.17;19.33;;;7.70;95.10;;;;;;5089212;28;20515;-69
2021/04/19 06:48:41;;;;;;;43.43;22.03;;;7.70;95.00;;;;;;5108779;28;20186;-69
2021/04/19 06:51:10;;;;;;;38.63;21.80;;;7.70;95.00;;;;;;5109552;28;20504;-68
2021/04/19 06:53:37;;;;;;;41.20;21.20;;;7.80;95.20;;;;;;5094893;28;20990;-69
2021/04/19 06:56:05;;;;;;;36.97;20.20;;;7.90;95.40;;;;;;5107813;28;20428;-68
2021/04/19 06:58:33;;;;;;;43.80;21.33;;;8.10;95.40;;;;;;5109401;28;20484;-69
2021/04/19 07:01:01;;;;;;;42.00;22.37;;;8.20;95.40;;;;;;5109302;28;20512;-69
2021/04/19 07:03:28;;;;;;;46.27;21.63;;;8.20;95.30;;;;;;5109686;28;20447;-71
2021/04/19 07:05:54;;;;;;;39.50;21.50;;;8.30;95.30;;;;;;5107705;28;20474;-69
2021/04/19 07:08:29;;;;;;;43.80;20.80;;;8.30;95.00;;;;;;5088190;28;20988;-71
2021/04/19 07:11:00;;;;;;;44.10;21.13;;;8.30;94.80;;;;;;5106574;28;20876;-67
2021/04/19 07:13:28;;;;;;;38.30;20.40;;;8.40;94.90;;;;;;5109814;28;20515;-70
2021/04/19 07:15:54;;;;;;;37.37;19.03;;;8.30;94.70;;;;;;5116252;28;20424;-71
2021/04/19 07:18:20;;;;;;;38.60;20.20;;;8.30;94.80;;;;;;5115348;28;20409;-71
2021/04/19 07:20:46;;;;;;;41.50;19.20;;;8.30;94.80;;;;;;5106471;28;20707;-68
2021/04/19 07:23:14;;;;;;;43.77;21.80;;;8.30;94.70;;;;;;5088781;28;20497;-69
2021/04/19 07:25:41;;;;;;;40.20;20.53;;;8.30;94.40;;;;;;5101784;28;20424;-68
2021/04/19 07:28:07;;;;;;;36.23;19.17;;;8.20;94.40;;;;;;5098790;28;20437;-70
2021/04/19 07:30:33;;;;;;;40.03;20.27;;;8.20;94.20;;;;;;5102050;28;20518;-70
2021/04/19 07:33:02;;;;;;;37.90;20.37;;;8.20;94.30;;;;;;5087714;28;20851;-70
2021/04/19 07:35:33;;;;;;;36.77;21.07;;;8.30;94.50;;;;;;5089090;28;20610;-71
2021/04/19 07:38:04;;;;;;;39.77;19.67;;;8.30;94.50;;;;;;5098079;28;20410;-71
2021/04/19 07:40:31;;;;;;;38.83;19.43;;;8.30;94.60;;;;;;5088638;28;20551;-68
2021/04/19 07:43:14;;;;;;;35.20;19.10;;;8.30;94.60;;;;;;5088662;28;20518;-70
2021/04/19 07:46:01;;;;;;;32.93;19.77;;;8.30;94.80;;;;;;5088993;28;20416;-69
2021/04/19 07:48:47;;;;;;;39.77;20.23;;;8.40;94.80;;;;;;5089330;28;20424;-70
2021/04/19 07:51:42;;;;;;;38.73;20.83;;;8.40;94.80;;;;;;5102151;28;20943;-70
2021/04/19 07:54:10;;;;;;;44.10;23.23;;;8.50;94.80;;;;;;5086459;28;20437;-69
2021/04/19 07:56:37;;;;;;;33.40;18.80;;;8.60;94.60;;;;;;5095400;28;20444;-70
2021/04/19 07:59:28;;;;;;;41.87;22.00;;;8.70;94.40;;;;;;5102557;28;20448;-70
2021/04/19 08:01:59;;;;;;;37.97;19.90;;;8.70;94.20;;;;;;5093617;28;20501;-69
2021/04/19 08:04:25;;;;;;;40.37;21.23;;;8.80;94.00;;;;;;5093552;28;20474;-70
2021/04/19 08:06:52;;;;;;;38.73;20.67;;;8.90;93.90;;;;;;5102792;28;20416;-71
2021/04/19 08:09:23;;;;;;;38.53;21.00;;;9.00;93.70;;;;;;5116056;28;20513;-70
2021/04/19 08:11:50;;;;;;;42.03;20.07;;;9.10;93.40;;;;;;5115791;27;20413;-71
2021/04/19 08:14:16;;;;;;;46.80;21.47;;;8.90;91.80;;;;;;5098975;28;20417;-70
2021/04/19 08:16:42;;;;;;;37.50;19.07;;;8.90;91.70;;;;;;5111625;28;20546;-70
2021/04/19 08:19:07;;;;;;;43.20;20.20;;;9.00;91.70;;;;;;5107162;28;20233;-70
2021/04/19 08:21:34;;;;;;;34.60;18.83;;;8.90;91.60;;;;;;5092051;28;20305;-70
2021/04/19 08:24:17;;;;;;;38.97;19.40;;;8.90;91.50;;;;;;5109074;28;20195;-69
2021/04/19 08:26:57;;;;;;;35.50;20.43;;;8.70;91.50;;;;;;5120956;27;20419;-72
2021/04/19 08:29:41;;;;;;;43.50;22.60;;;8.70;92.00;;;;;;5110914;28;20508;-72
2021/04/19 08:32:08;;;;;;;36.13;20.20;;;8.70;92.10;;;;;;5098993;28;20532;-70
2021/04/19 08:34:37;;;;;;;40.80;21.60;;;8.70;92.20;;;;;;5113416;28;20916;-72
2021/04/19 08:37:05;;;;;;;35.60;19.13;;;8.60;92.80;;;;;;5112013;28;20408;-69
2021/04/19 08:39:33;;;;;;;39.30;21.10;;;8.50;93.20;;;;;;5112324;28;20433;-71
2021/04/19 08:42:01;;;;;;;40.20;20.23;;;8.50;93.60;;;;;;5112036;28;21013;-73
2021/04/19 08:44:32;;;;;;;48.50;22.53;;;8.60;94.00;;;;;;5127867;27;20454;-69
2021/04/19 08:46:59;;;;;;;39.90;19.23;;;8.60;94.30;;;;;;5094701;28;20444;-74
2021/04/19 08:49:26;;;;;;;39.23;19.33;;;8.60;94.60;;;;;;5094538;28;20440;-70
2021/04/19 08:51:53;;;;;;;47.10;20.70;;;8.60;94.60;;;;;;5100560;28;20428;-75
2021/04/19 08:54:20;;;;;;;45.60;21.53;;;8.60;94.30;;;;;;5114752;28;20428;-71
2021/04/19 08:56:46;;;;;;;35.40;20.30;;;8.60;94.20;;;;;;5114753;28;20409;-70
2021/04/19 08:59:13;;;;;;;41.30;20.87;;;8.60;94.20;;;;;;5114275;28;20440;-69
2021/04/19 09:01:41;;;;;;;38.30;19.47;;;8.50;94.10;;;;;;5109813;28;20529;-73
2021/04/19 09:04:09;;;;;;;38.70;19.90;;;8.50;94.30;;;;;;5096448;28;20423;-72
2021/04/19 09:06:46;;;;;;;44.80;21.07;;;8.50;94.30;;;;;;5094212;28;20849;-73
2021/04/19 09:09:14;;;;;;;47.20;22.80;;;8.50;94.80;;;;;;5095554;28;20437;-71
2021/04/19 09:11:41;;;;;;;43.27;21.63;;;8.50;94.60;;;;;;5112766;28;20423;-70
2021/04/19 09:14:10;;;;;;;51.83;21.03;;;8.50;94.80;;;;;;5112546;28;20511;-74
2021/04/19 09:16:41;;;;;;;47.40;21.73;;;8.30;94.40;;;;;;5117551;28;20973;-70
2021/04/19 09:19:07;;;;;;;40.73;20.97;;;8.30;94.80;;;;;;5116299;28;20927;-73
2021/04/19 09:21:34;;;;;;;52.90;22.20;;;8.30;94.80;;;;;;5115615;28;20509;-74
2021/04/19 09:24:00;;;;;;;50.27;21.97;;;8.30;94.60;;;;;;5098373;28;20921;-72
2021/04/19 09:26:51;;;;;;;38.27;19.77;;;8.30;94.80;;;;;;5109994;28;20420;-69
2021/04/19 09:29:41;;;;;;;36.70;20.20;;;8.40;94.70;;;;;;5113698;28;20456;-73
2021/04/19 09:32:09;;;;;;;39.80;19.70;;;8.50;94.60;;;;;;5105922;28;20451;-72
2021/04/19 09:34:41;;;;;;;40.33;19.53;;;8.60;94.60;;;;;;5111548;28;20405;-74
2021/04/19 09:37:12;;;;;;;40.73;19.70;;;8.80;94.90;;;;;;5106905;28;20496;-69
2021/04/19 09:39:48;;;;;;;41.63;19.90;;;9.00;95.10;;;;;;5090477;28;20806;-70
2021/04/19 09:42:15;;;;;;;34.63;17.27;;;9.00;94.60;;;;;;5099984;28;20467;-72
2021/04/19 09:44:53;;;;;;;40.43;18.57;;;9.00;93.90;;;;;;5115666;28;20427;-71
2021/04/19 09:47:57;;;;;;;40.87;20.00;;;9.20;93.40;;;;;;5114313;28;20416;-71
2021/04/19 09:50:23;;;;;;;36.70;18.60;;;9.30;92.90;;;;;;5041335;28;20527;-71
2021/04/19 09:52:53;;;;;;;37.63;18.67;;;9.20;92.30;;;;;;5041890;28;20430;-72
2021/04/19 09:55:21;;;;;;;34.83;18.37;;;9.30;92.60;;;;;;5028044;28;20440;-70
2021/04/19 09:57:47;;;;;;;32.33;16.53;;;9.40;92.30;;;;;;5025359;28;20422;-71
2021/04/19 10:00:16;;;;;;;37.83;18.33;;;9.60;91.80;;;;;;5047991;28;20458;-70
2021/04/19 10:02:43;;;;;;;34.83;18.30;;;9.70;91.60;;;;;;5034731;28;20420;-71
2021/04/19 10:05:13;;;;;;;32.80;18.40;;;9.90;91.50;;;;;;5048005;28;20514;-71
2021/04/19 10:07:43;;;;;;;45.67;19.23;;;10.00;91.10;;;;;;5033610;28;20436;-71
2021/04/19 10:10:10;;;;;;;39.80;19.97;;;10.10;90.70;;;;;;5047162;28;20452;-72
2021/04/19 10:12:44;;;;;;;43.40;21.23;;;10.10;90.60;;;;;;5032089;28;20420;-74
2021/04/19 10:15:24;;;;;;;42.30;19.83;;;10.20;90.40;;;;;;5037861;28;20434;-69
2021/04/19 10:17:50;;;;;;;40.30;19.93;;;10.10;89.60;;;;;;5028243;28;20458;-70
2021/04/19 10:20:22;;;;;;;51.63;24.20;;;10.00;89.70;;;;;;5033806;28;20543;-71
2021/04/19 10:23:08;;;;;;;37.87;18.83;;;9.80;90.00;;;;;;5111978;28;20416;-70
2021/04/19 10:25:43;;;;;;;40.60;19.77;;;9.80;90.50;;;;;;5111315;28;20416;-70
2021/04/19 10:28:09;;;;;;;37.20;19.90;;;9.80;89.90;;;;;;5091258;28;20928;-73
2021/04/19 10:30:35;;;;;;;44.93;20.90;;;9.80;90.60;;;;;;5113408;28;20497;-74
2021/04/19 10:33:01;;;;;;;43.93;22.47;;;9.80;90.00;;;;;;5104308;28;20440;-72
2021/04/19 10:35:35;;;;;;;45.13;21.63;;;9.90;89.90;;;;;;5098906;28;20565;-75
2021/04/19 10:38:03;;;;;;;38.23;20.20;;;9.70;90.30;;;;;;5118886;28;20197;-74
2021/04/19 10:40:29;;;;;;;41.90;21.47;;;9.70;90.60;;;;;;5110734;28;20467;-72
2021/04/19 10:43:06;;;;;;;40.03;20.47;;;9.60;91.00;;;;;;5109138;28;20427;-72
2021/04/19 10:45:32;;;;;;;39.53;20.30;;;9.60;91.20;;;;;;5096373;28;20435;-70
2021/04/19 10:48:21;;;;;;;37.07;21.40;;;9.50;91.50;;;;;;5108484;28;20928;-72
2021/04/19 10:50:55;;;;;;;39.60;20.80;;;9.60;91.50;;;;;;5110228;28;20212;-69
2021/04/19 10:53:38;;;;;;;46.20;21.40;;;9.60;91.50;;;;;;5110497;28;20468;-72
2021/04/19 10:56:05;;;;;;;40.70;21.53;;;9.60;91.40;;;;;;5110074;28;20416;-74
2021/04/19 10:58:34;;;;;;;48.17;23.77;;;9.60;91.60;;;;;;5108313;28;20420;-73
2021/04/19 11:01:00;;;;;;;40.63;21.07;;;9.50;92.10;;;;;;5109619;28;20523;-73
2021/04/19 11:03:34;;;;;;;43.20;21.97;;;9.50;92.40;;;;;;5096930;28;20431;-74
2021/04/19 11:06:02;;;;;;;49.93;22.87;;;9.50;92.50;;;;;;5110345;28;20477;-71
2021/04/19 11:08:51;;;;;;;45.30;22.83;;;9.20;92.40;;;;;;5110413;28;20439;-72
2021/04/19 11:11:43;;;;;;;49.50;25.20;;;9.40;93.00;;;;;;5109993;28;20488;-71
2021/04/19 11:14:24;;;;;;;42.50;21.60;;;9.50;93.20;;;;;;5103185;28;20437;-72
2021/04/19 11:16:49;;;;;;;43.47;22.73;;;9.40;92.80;;;;;;5109462;28;20465;-69
2021/04/19 11:19:28;;;;;;;45.27;22.33;;;9.40;92.70;;;;;;5095418;28;20436;-69
2021/04/19 11:21:54;;;;;;;44.40;22.43;;;9.40;92.60;;;;;;5108387;28;20202;-73
2021/04/19 11:24:19;;;;;;;36.87;19.60;;;9.40;92.20;;;;;;5096473;28;20416;-69
2021/04/19 11:26:45;;;;;;;44.70;21.70;;;9.50;92.20;;;;;;5111364;28;20551;-72
2021/04/19 11:29:11;;;;;;;46.53;21.37;;;9.70;92.30;;;;;;5113334;28;20283;-69
2021/04/19 11:31:46;;;;;;;40.00;21.60;;;9.70;92.10;;;;;;5122595;28;20263;-73
2021/04/19 11:34:16;;;;;;;37.87;19.13;;;9.80;92.00;;;;;;5110467;28;20208;-71
2021/04/19 11:36:44;;;;;;;38.27;21.07;;;9.90;90.70;;;;;;5103549;28;20417;-71
2021/04/19 11:39:18;;;;;;;40.80;19.27;;;10.00;90.80;;;;;;5102477;28;20943;-72
2021/04/19 11:41:46;;;;;;;38.20;19.70;;;9.90;90.00;;;;;;5114783;28;20477;-73
2021/04/19 11:44:12;;;;;;;41.60;20.23;;;9.80;90.40;;;;;;5135347;27;20465;-70
2021/04/19 11:46:43;;;;;;;38.00;19.83;;;9.80;90.70;;;;;;5113183;28;20424;-71
2021/04/19 11:49:14;;;;;;;39.00;19.57;;;10.00;90.90;;;;;;5111367;28;20500;-72
2021/04/19 11:51:40;;;;;;;34.07;19.37;;;10.20;90.30;;;;;;5099881;28;20432;-73
2021/04/19 11:54:06;;;;;;;36.70;19.30;;;10.30;90.10;;;;;;5101458;28;20757;-72
2021/04/19 11:56:31;;;;;;;37.53;18.60;;;10.30;89.00;;;;;;5110300;28;20428;-72
2021/04/19 11:58:57;;;;;;;35.00;18.30;;;10.30;89.20;;;;;;5112622;28;20178;-71
2021/04/19 12:01:23;;;;;;;34.33;17.40;;;10.10;88.30;;;;;;5095906;28;20195;-72
2021/04/19 12:03:51;;;;;;;32.73;17.90;;;10.10;87.80;;;;;;5103715;28;20194;-73
2021/04/19 12:06:18;;;;;;;36.03;16.80;;;10.30;86.30;;;;;;5098155;28;20200;-72
2021/04/19 12:08:45;;;;;;;29.83;15.40;;;10.30;86.30;;;;;;5101596;28;20463;-69
2021/04/19 12:11:13;;;;;;;28.03;15.33;;;10.40;86.30;;;;;;5112784;28;21319;-75
2021/04/19 12:13:39;;;;;;;27.43;14.53;;;10.60;85.90;;;;;;5115493;28;20520;-72
2021/04/19 12:16:05;;;;;;;35.73;16.40;;;10.80;84.60;;;;;;5113800;28;20417;-71
2021/04/19 12:18:35;;;;;;;28.47;15.77;;;10.80;83.10;;;;;;5111638;28;20423;-71
2021/04/19 12:21:02;;;;;;;30.50;15.80;;;10.80;83.60;;;;;;5111861;28;20480;-73
2021/04/19 12:23:29;;;;;;;33.70;16.03;;;11.00;83.70;;;;;;5113415;28;20928;-75
2021/04/19 12:25:56;;;;;;;27.20;15.30;;;11.10;83.30;;;;;;5099943;28;20485;-70
2021/04/19 12:28:23;;;;;;;28.40;14.20;;;11.20;82.70;;;;;;5115260;28;20967;-72
2021/04/19 12:30:50;;;;;;;26.20;14.87;;;11.20;81.10;;;;;;5114263;28;20443;-71
2021/04/19 12:33:16;;;;;;;28.63;15.43;;;11.10;81.40;;;;;;5113448;28;20731;-72
2021/04/19 12:35:42;;;;;;;26.90;15.17;;;11.30;81.80;;;;;;5113828;28;20453;-70
2021/04/19 12:38:08;;;;;;;30.57;15.43;;;11.20;81.70;;;;;;5113766;28;20420;-71
2021/04/19 12:40:34;;;;;;;25.47;14.37;;;11.20;82.20;;;;;;5116315;28;20901;-69
2021/04/19 12:43:00;;;;;;;26.07;14.30;;;11.40;81.50;;;;;;5114623;28;20412;-70
2021/04/19 12:45:31;;;;;;;26.50;13.20;;;11.60;80.60;;;;;;5106821;28;20454;-69
2021/04/19 12:48:01;;;;;;;26.23;14.37;;;11.60;79.90;;;;;;5097200;28;20493;-73
2021/04/19 12:50:28;;;;;;;24.03;13.37;;;11.40;79.00;;;;;;5130508;27;20447;-72